createdAt,value
2022-08-21T00:00:27.937Z,0.00
2022-08-21T00:01:27.916Z,0.00
2022-08-21T00:02:28.018Z,0.00
2022-08-21T00:03:27.888Z,0.00
2022-08-21T00:04:29.426Z,0.00
2022-08-21T00:05:27.853Z,0.00
2022-08-21T00:06:27.846Z,0.00
2022-08-21T00:07:27.936Z,0.00
2022-08-21T00:08:27.815Z,0.00
2022-08-21T00:09:27.823Z,0.00
2022-08-21T00:10:27.790Z,0.00
2022-08-21T00:11:27.775Z,0.00
2022-08-21T00:12:27.762Z,0.00
2022-08-21T00:13:27.744Z,0.00
2022-08-21T00:14:27.730Z,0.00
2022-08-21T00:15:27.713Z,0.00
2022-08-21T00:16:27.705Z,0.00
2022-08-21T00:17:27.688Z,0.00
2022-08-21T00:18:27.673Z,0.00
2022-08-21T00:19:27.653Z,0.00
2022-08-21T00:20:27.648Z,0.00
2022-08-21T00:21:27.633Z,0.00
2022-08-21T00:22:27.619Z,0.00
2022-08-21T00:23:27.602Z,0.00
2022-08-21T00:24:27.587Z,0.00
2022-08-21T00:25:27.574Z,0.00
2022-08-21T00:26:27.555Z,0.00
2022-08-21T00:27:27.543Z,0.00
2022-08-21T00:28:27.528Z,0.00
2022-08-21T00:29:27.516Z,0.00
2022-08-21T00:30:27.498Z,0.00
2022-08-21T00:31:27.482Z,0.00
2022-08-21T00:32:27.469Z,0.00
2022-08-21T00:33:27.451Z,0.00
2022-08-21T00:34:27.441Z,0.00
2022-08-21T00:35:27.427Z,0.00
2022-08-21T00:36:27.408Z,0.00
2022-08-21T00:37:27.403Z,0.00
2022-08-21T00:38:27.384Z,0.00
2022-08-21T00:39:27.366Z,0.00
2022-08-21T00:40:27.354Z,0.00
2022-08-21T00:41:37.274Z,0.00
2022-08-21T00:42:27.323Z,0.00
2022-08-21T00:43:27.309Z,0.00
2022-08-21T00:44:27.294Z,0.00
2022-08-21T00:45:27.281Z,0.00
2022-08-21T00:46:28.332Z,0.00
2022-08-21T00:47:27.251Z,0.00
2022-08-21T00:48:27.238Z,0.00
2022-08-21T00:49:27.225Z,0.00
2022-08-21T00:50:27.210Z,0.00
2022-08-21T00:51:27.193Z,0.00
2022-08-21T00:52:27.178Z,0.00
2022-08-21T00:53:27.167Z,0.00
2022-08-21T00:54:27.150Z,0.00
2022-08-21T00:55:27.133Z,0.00
2022-08-21T00:56:27.121Z,0.00
2022-08-21T00:57:27.109Z,0.00
2022-08-21T00:58:27.092Z,0.00
2022-08-21T00:59:27.077Z,0.00
2022-08-21T01:00:27.068Z,0.00
2022-08-21T01:01:27.156Z,0.00
2022-08-21T01:02:27.035Z,0.00
2022-08-21T01:03:27.019Z,0.00
2022-08-21T01:04:27.004Z,0.00
2022-08-21T01:05:26.991Z,0.00
2022-08-21T01:06:26.982Z,0.00
2022-08-21T01:07:27.674Z,0.00
2022-08-21T01:08:26.944Z,0.00
2022-08-21T01:09:26.936Z,0.00
2022-08-21T01:10:26.917Z,0.00
2022-08-21T01:11:26.901Z,0.00
2022-08-21T01:12:26.891Z,0.00
2022-08-21T01:13:26.872Z,0.00
2022-08-21T01:14:26.863Z,0.00
2022-08-21T01:15:26.841Z,0.00
2022-08-21T01:16:26.838Z,0.00
2022-08-21T01:17:26.816Z,0.00
2022-08-21T01:18:26.806Z,0.00
2022-08-21T01:19:26.785Z,0.00
2022-08-21T01:20:32.325Z,0.00
2022-08-21T01:21:28.167Z,0.00
2022-08-21T01:22:26.743Z,0.00
2022-08-21T01:23:26.730Z,0.00
2022-08-21T01:24:26.716Z,0.00
2022-08-21T01:25:26.701Z,0.00
2022-08-21T01:26:33.745Z,0.00
2022-08-21T01:27:26.675Z,0.00
2022-08-21T01:28:26.656Z,0.00
2022-08-21T01:29:26.642Z,0.00
2022-08-21T01:30:26.628Z,0.00
2022-08-21T01:31:26.616Z,0.00
2022-08-21T01:32:26.600Z,0.00
2022-08-21T01:33:26.588Z,0.00
2022-08-21T01:34:26.570Z,0.00
2022-08-21T01:35:26.553Z,0.00
2022-08-21T01:36:26.544Z,0.00
2022-08-21T01:37:26.527Z,0.00
2022-08-21T01:38:26.512Z,0.00
2022-08-21T01:39:26.493Z,0.00
2022-08-21T01:40:26.482Z,0.00
2022-08-21T01:41:26.464Z,0.00
2022-08-21T01:42:26.454Z,0.00
2022-08-21T01:43:30.709Z,0.00
2022-08-21T01:44:26.422Z,0.00
2022-08-21T01:45:26.409Z,0.00
2022-08-21T01:46:26.398Z,0.00
2022-08-21T01:47:26.378Z,0.00
2022-08-21T01:48:26.367Z,0.00
2022-08-21T01:49:26.353Z,0.00
2022-08-21T01:50:26.332Z,0.00
2022-08-21T01:51:26.323Z,0.00
2022-08-21T01:52:26.305Z,0.00
2022-08-21T01:53:27.955Z,0.00
2022-08-21T01:54:26.283Z,0.00
2022-08-21T01:55:26.262Z,0.00
2022-08-21T01:56:26.252Z,0.00
2022-08-21T01:57:26.552Z,0.00
2022-08-21T01:58:26.228Z,0.00
2022-08-21T01:59:26.203Z,0.00
2022-08-21T02:00:26.194Z,0.00
2022-08-21T02:01:26.261Z,0.00
2022-08-21T02:02:26.165Z,0.00
2022-08-21T02:03:35.291Z,0.00
2022-08-21T02:04:26.135Z,0.00
2022-08-21T02:05:26.122Z,0.00
2022-08-21T02:06:26.111Z,0.00
2022-08-21T02:07:26.086Z,0.00
2022-08-21T02:08:26.081Z,0.00
2022-08-21T02:09:26.060Z,0.00
2022-08-21T02:10:26.049Z,0.00
2022-08-21T02:11:26.040Z,0.00
2022-08-21T02:12:26.018Z,0.00
2022-08-21T02:13:26.006Z,0.00
2022-08-21T02:14:28.672Z,0.00
2022-08-21T02:15:25.975Z,0.00
2022-08-21T02:16:25.958Z,0.00
2022-08-21T02:17:25.945Z,0.00
2022-08-21T02:18:25.933Z,0.00
2022-08-21T02:19:25.919Z,0.00
2022-08-21T02:20:25.901Z,0.00
2022-08-21T02:21:25.883Z,0.00
2022-08-21T02:22:25.872Z,0.00
2022-08-21T02:23:27.146Z,0.00
2022-08-21T02:24:25.847Z,0.00
2022-08-21T02:25:25.828Z,0.00
2022-08-21T02:26:25.812Z,0.00
2022-08-21T02:27:26.684Z,0.00
2022-08-21T02:28:25.796Z,0.00
2022-08-21T02:29:25.772Z,0.00
2022-08-21T02:30:25.753Z,0.00
2022-08-21T02:31:25.740Z,0.00
2022-08-21T02:32:25.725Z,0.00
2022-08-21T02:33:25.711Z,0.00
2022-08-21T02:34:29.391Z,0.00
2022-08-21T02:35:25.694Z,0.00
2022-08-21T02:36:25.673Z,0.00
2022-08-21T02:37:25.653Z,0.00
2022-08-21T02:38:25.642Z,0.00
2022-08-21T02:39:27.416Z,0.00
2022-08-21T02:40:25.605Z,0.00
2022-08-21T02:41:25.599Z,0.00
2022-08-21T02:42:25.584Z,0.00
2022-08-21T02:43:25.565Z,0.00
2022-08-21T02:44:34.238Z,0.00
2022-08-21T02:45:25.537Z,0.00
2022-08-21T02:46:25.521Z,0.00
2022-08-21T02:47:25.504Z,0.00
2022-08-21T02:48:25.488Z,0.00
2022-08-21T02:49:25.472Z,0.00
2022-08-21T02:50:26.676Z,0.00
2022-08-21T02:51:25.446Z,0.00
2022-08-21T02:52:25.430Z,0.00
2022-08-21T02:53:25.417Z,0.00
2022-08-21T02:54:25.402Z,0.00
2022-08-21T02:55:25.389Z,0.00
2022-08-21T02:56:25.373Z,0.00
2022-08-21T02:57:25.356Z,0.00
2022-08-21T02:58:25.344Z,0.00
2022-08-21T02:59:25.329Z,0.00
2022-08-21T03:00:25.311Z,0.00
2022-08-21T03:01:25.342Z,0.00
2022-08-21T03:02:26.679Z,0.00
2022-08-21T03:03:25.265Z,0.00
2022-08-21T03:04:25.251Z,0.00
2022-08-21T03:05:25.236Z,0.00
2022-08-21T03:06:25.221Z,0.00
2022-08-21T03:07:25.205Z,0.00
2022-08-21T03:08:27.699Z,0.00
2022-08-21T03:09:25.178Z,0.00
2022-08-21T03:10:25.164Z,0.00
2022-08-21T03:11:25.143Z,0.00
2022-08-21T03:12:25.129Z,0.00
2022-08-21T03:13:25.114Z,0.00
2022-08-21T03:14:25.098Z,0.00
2022-08-21T03:15:25.089Z,0.00
2022-08-21T03:16:25.069Z,0.00
2022-08-21T03:17:29.568Z,0.00
2022-08-21T03:18:25.038Z,0.00
2022-08-21T03:19:25.032Z,0.00
2022-08-21T03:20:25.014Z,0.00
2022-08-21T03:21:24.993Z,0.00
2022-08-21T03:22:24.983Z,0.00
2022-08-21T03:23:24.966Z,0.00
2022-08-21T03:24:24.948Z,0.00
2022-08-21T03:25:35.672Z,0.00
2022-08-21T03:26:24.920Z,0.00
2022-08-21T03:27:24.902Z,0.00
2022-08-21T03:28:24.892Z,0.00
2022-08-21T03:29:24.876Z,0.00
2022-08-21T03:30:24.863Z,0.00
2022-08-21T03:31:24.844Z,0.00
2022-08-21T03:32:24.828Z,0.00
2022-08-21T03:33:24.813Z,0.00
2022-08-21T03:34:24.799Z,0.00
2022-08-21T03:35:24.784Z,0.00
2022-08-21T03:36:24.775Z,0.00
2022-08-21T03:37:24.755Z,0.00
2022-08-21T03:38:26.720Z,0.00
2022-08-21T03:39:24.724Z,0.00
2022-08-21T03:40:24.712Z,0.00
2022-08-21T03:41:24.695Z,0.00
2022-08-21T03:42:24.685Z,0.00
2022-08-21T03:43:24.660Z,0.00
2022-08-21T03:44:24.647Z,0.00
2022-08-21T03:45:24.635Z,0.00
2022-08-21T03:46:24.615Z,0.00
2022-08-21T03:47:24.600Z,0.00
2022-08-21T03:48:24.588Z,0.00
2022-08-21T03:49:24.579Z,0.00
2022-08-21T03:50:24.558Z,0.00
2022-08-21T03:51:24.542Z,0.00
2022-08-21T03:52:24.524Z,0.00
2022-08-21T03:53:24.511Z,4.00
2022-08-21T03:54:24.496Z,4.00
2022-08-21T03:55:24.479Z,4.00
2022-08-21T03:56:24.468Z,0.00
2022-08-21T03:57:24.453Z,4.00
2022-08-21T03:58:24.436Z,4.00
2022-08-21T03:59:24.416Z,4.00
2022-08-21T04:00:24.409Z,4.00
2022-08-21T04:01:24.434Z,4.00
2022-08-21T04:02:24.375Z,8.00
2022-08-21T04:03:24.355Z,8.00
2022-08-21T04:04:24.343Z,8.00
2022-08-21T04:05:24.326Z,12.00
2022-08-21T04:06:24.312Z,12.00
2022-08-21T04:07:24.297Z,16.00
2022-08-21T04:08:24.280Z,16.00
2022-08-21T04:09:24.266Z,20.00
2022-08-21T04:10:24.251Z,24.00
2022-08-21T04:11:24.237Z,24.00
2022-08-21T04:12:24.218Z,32.00
2022-08-21T04:13:24.199Z,32.00
2022-08-21T04:14:24.191Z,36.00
2022-08-21T04:15:24.169Z,40.00
2022-08-21T04:16:24.156Z,44.00
2022-08-21T04:17:24.143Z,52.00
2022-08-21T04:18:24.123Z,56.00
2022-08-21T04:19:24.108Z,64.00
2022-08-21T04:20:24.095Z,72.00
2022-08-21T04:21:24.267Z,80.00
2022-08-21T04:22:24.064Z,84.00
2022-08-21T04:23:24.845Z,96.00
2022-08-21T04:24:24.032Z,104.00
2022-08-21T04:25:24.015Z,116.00
2022-08-21T04:26:24.001Z,124.00
2022-08-21T04:27:23.986Z,140.00
2022-08-21T04:28:23.967Z,152.00
2022-08-21T04:29:23.958Z,160.00
2022-08-21T04:30:28.126Z,172.00
2022-08-21T04:31:23.921Z,188.00
2022-08-21T04:32:23.908Z,204.00
2022-08-21T04:33:23.896Z,224.00
2022-08-21T04:34:23.881Z,244.00
2022-08-21T04:35:23.867Z,264.00
2022-08-21T04:36:24.534Z,284.00
2022-08-21T04:37:23.842Z,304.00
2022-08-21T04:38:23.817Z,328.00
2022-08-21T04:39:25.198Z,352.00
2022-08-21T04:40:23.873Z,372.00
2022-08-21T04:41:27.986Z,392.00
2022-08-21T04:42:23.759Z,412.00
2022-08-21T04:43:23.742Z,432.00
2022-08-21T04:44:23.725Z,456.00
2022-08-21T04:45:23.702Z,476.00
2022-08-21T04:46:23.689Z,500.00
2022-08-21T04:47:23.671Z,524.00
2022-08-21T04:48:23.662Z,548.00
2022-08-21T04:49:23.643Z,572.00
2022-08-21T04:50:23.630Z,596.00
2022-08-21T04:51:23.608Z,620.00
2022-08-21T04:52:23.598Z,644.00
2022-08-21T04:53:23.591Z,664.00
2022-08-21T04:54:23.562Z,688.00
2022-08-21T04:55:23.552Z,708.00
2022-08-21T04:56:23.533Z,728.00
2022-08-21T04:57:23.518Z,752.00
2022-08-21T04:58:23.504Z,772.00
2022-08-21T04:59:23.483Z,796.00
2022-08-21T05:00:23.479Z,820.00
2022-08-21T05:01:23.533Z,840.00
2022-08-21T05:02:23.443Z,868.00
2022-08-21T05:03:23.426Z,888.00
2022-08-21T05:04:23.419Z,908.00
2022-08-21T05:05:23.400Z,936.00
2022-08-21T05:06:23.381Z,956.00
2022-08-21T05:07:42.803Z,984.00
2022-08-21T05:08:23.351Z,1008.00
2022-08-21T05:09:23.332Z,1036.00
2022-08-21T05:10:23.321Z,1060.00
2022-08-21T05:11:23.301Z,1084.00
2022-08-21T05:12:23.288Z,1112.00
2022-08-21T05:13:23.273Z,1140.00
2022-08-21T05:14:23.254Z,1164.00
2022-08-21T05:15:23.237Z,1184.00
2022-08-21T05:16:36.421Z,1208.00
2022-08-21T05:17:23.209Z,1228.00
2022-08-21T05:18:23.192Z,1248.00
2022-08-21T05:19:23.182Z,1272.00
2022-08-21T05:20:23.167Z,1292.00
2022-08-21T05:21:23.151Z,1312.00
2022-08-21T05:22:23.137Z,1332.00
2022-08-21T05:23:23.112Z,1360.00
2022-08-21T05:24:23.109Z,1380.00
2022-08-21T05:25:23.650Z,1408.00
2022-08-21T05:26:23.073Z,1428.00
2022-08-21T05:27:23.053Z,1452.00
2022-08-21T05:28:23.042Z,1476.00
2022-08-21T05:29:23.026Z,1500.00
2022-08-21T05:30:23.010Z,1524.00
2022-08-21T05:31:23.003Z,1548.00
2022-08-21T05:32:22.980Z,1568.00
2022-08-21T05:33:22.960Z,1596.00
2022-08-21T05:34:22.952Z,1620.00
2022-08-21T05:35:22.943Z,1640.00
2022-08-21T05:36:22.917Z,1668.00
2022-08-21T05:37:23.012Z,1692.00
2022-08-21T05:38:22.886Z,1712.00
2022-08-21T05:39:22.873Z,1732.00
2022-08-21T05:40:23.448Z,1756.00
2022-08-21T05:41:22.838Z,1776.00
2022-08-21T05:42:22.838Z,1804.00
2022-08-21T05:43:22.806Z,1824.00
2022-08-21T05:44:22.799Z,1848.00
2022-08-21T05:45:42.040Z,1872.00
2022-08-21T05:46:22.771Z,1896.00
2022-08-21T05:47:22.747Z,1920.00
2022-08-21T05:48:22.737Z,1944.00
2022-08-21T05:49:22.721Z,1968.00
2022-08-21T05:50:22.700Z,1992.00
2022-08-21T05:51:22.688Z,2016.00
2022-08-21T05:52:22.669Z,2040.00
2022-08-21T05:53:22.653Z,2064.00
2022-08-21T05:54:22.640Z,2088.00
2022-08-21T05:55:22.624Z,2116.00
2022-08-21T05:56:22.620Z,2140.00
2022-08-21T05:57:22.595Z,2164.00
2022-08-21T05:58:22.601Z,2192.00
2022-08-21T05:59:22.562Z,2208.00
2022-08-21T06:00:22.555Z,2236.00
2022-08-21T06:01:22.575Z,2264.00
2022-08-21T06:02:22.544Z,2288.00
2022-08-21T06:03:22.503Z,2320.00
2022-08-21T06:04:22.489Z,2352.00
2022-08-21T06:05:35.850Z,2384.00
2022-08-21T06:06:22.464Z,2408.00
2022-08-21T06:07:22.450Z,2444.00
2022-08-21T06:08:22.434Z,2464.00
2022-08-21T06:09:22.415Z,2488.00
2022-08-21T06:10:22.400Z,2524.00
2022-08-21T06:11:25.803Z,2564.00
2022-08-21T06:12:22.373Z,2604.00
2022-08-21T06:13:22.358Z,2636.00
2022-08-21T06:14:22.342Z,2668.00
2022-08-21T06:15:22.321Z,2708.00
2022-08-21T06:16:22.310Z,2748.00
2022-08-21T06:17:22.298Z,2776.00
2022-08-21T06:18:22.279Z,2808.00
2022-08-21T06:19:22.265Z,2840.00
2022-08-21T06:20:22.247Z,2872.00
2022-08-21T06:21:22.232Z,2920.00
2022-08-21T06:22:22.221Z,2968.00
2022-08-21T06:23:22.203Z,3024.00
2022-08-21T06:24:22.194Z,3068.00
2022-08-21T06:25:22.178Z,3108.00
2022-08-21T06:26:22.159Z,3144.00
2022-08-21T06:27:26.052Z,3188.00
2022-08-21T06:28:22.128Z,3232.00
2022-08-21T06:29:22.120Z,3280.00
2022-08-21T06:30:22.099Z,3320.00
2022-08-21T06:31:22.098Z,3360.00
2022-08-21T06:32:22.070Z,3412.00
2022-08-21T06:33:22.059Z,3452.00
2022-08-21T06:34:22.044Z,3516.00
2022-08-21T06:35:22.026Z,3576.00
2022-08-21T06:36:22.023Z,3636.00
2022-08-21T06:37:22.007Z,3704.00
2022-08-21T06:38:21.995Z,3760.00
2022-08-21T06:39:24.974Z,3812.00
2022-08-21T06:40:22.032Z,3872.00
2022-08-21T06:41:23.758Z,3936.00
2022-08-21T06:42:21.931Z,3996.00
2022-08-21T06:43:21.914Z,4052.00
2022-08-21T06:44:21.896Z,4096.00
2022-08-21T06:45:21.883Z,4156.00
2022-08-21T06:46:21.873Z,4200.00
2022-08-21T06:47:21.862Z,4236.00
2022-08-21T06:48:21.839Z,4300.00
2022-08-21T06:49:21.851Z,4364.00
2022-08-21T06:50:21.819Z,4420.00
2022-08-21T06:51:21.794Z,4484.00
2022-08-21T06:52:21.787Z,4548.00
2022-08-21T06:53:21.767Z,4604.00
2022-08-21T06:54:21.757Z,4664.00
2022-08-21T06:55:24.473Z,4744.00
2022-08-21T06:56:21.724Z,4828.00
2022-08-21T06:57:21.708Z,4944.00
2022-08-21T06:58:21.694Z,5060.00
2022-08-21T06:59:21.678Z,5184.00
2022-08-21T07:00:21.666Z,5316.00
2022-08-21T07:01:21.692Z,5504.00
2022-08-21T07:02:21.641Z,5724.00
2022-08-21T07:03:21.625Z,6016.00
2022-08-21T07:04:21.614Z,7440.00
2022-08-21T07:05:21.606Z,16352.00
2022-08-21T07:06:21.588Z,31072.00
2022-08-21T07:07:21.573Z,51264.00
2022-08-21T07:08:21.561Z,68128.00
2022-08-21T07:09:24.678Z,75840.00
2022-08-21T07:10:22.440Z,75008.00
2022-08-21T07:11:21.530Z,75296.00
2022-08-21T07:12:21.516Z,76704.00
2022-08-21T07:13:21.505Z,76608.00
2022-08-21T07:14:21.495Z,75232.00
2022-08-21T07:15:21.483Z,70016.00
2022-08-21T07:16:21.480Z,64448.00
2022-08-21T07:17:21.485Z,60544.00
2022-08-21T07:18:21.458Z,55008.00
2022-08-21T07:19:21.444Z,37536.00
2022-08-21T07:20:21.441Z,20128.00
2022-08-21T07:21:25.290Z,12596.00
2022-08-21T07:22:21.428Z,11780.00
2022-08-21T07:23:21.417Z,11516.00
2022-08-21T07:24:21.412Z,11364.00
2022-08-21T07:25:21.407Z,11208.00
2022-08-21T07:26:21.397Z,11124.00
2022-08-21T07:27:21.389Z,11096.00
2022-08-21T07:28:21.383Z,11128.00
2022-08-21T07:29:21.381Z,11192.00
2022-08-21T07:30:21.381Z,11360.00
2022-08-21T07:31:21.370Z,11500.00
2022-08-21T07:32:21.566Z,11708.00
2022-08-21T07:33:21.360Z,12008.00
2022-08-21T07:34:21.356Z,12420.00
2022-08-21T07:35:21.351Z,13304.00
2022-08-21T07:36:21.346Z,20800.00
2022-08-21T07:37:21.349Z,48992.00
2022-08-21T07:38:21.344Z,75648.00
2022-08-21T07:39:21.342Z,78624.00
2022-08-21T07:40:21.441Z,79744.00
2022-08-21T07:41:21.334Z,78752.00
2022-08-21T07:42:21.332Z,78112.00
2022-08-21T07:43:21.340Z,80000.00
2022-08-21T07:44:21.325Z,78048.00
2022-08-21T07:45:21.328Z,72544.00
2022-08-21T07:46:21.322Z,68864.00
2022-08-21T07:47:40.515Z,71840.00
2022-08-21T07:48:21.327Z,72768.00
2022-08-21T07:49:21.325Z,72480.00
2022-08-21T07:50:21.382Z,71904.00
2022-08-21T07:51:21.316Z,71968.00
2022-08-21T07:52:21.313Z,72608.00
2022-08-21T07:53:21.313Z,72800.00
2022-08-21T07:54:31.046Z,72480.00
2022-08-21T07:55:21.316Z,75200.00
2022-08-21T07:56:21.312Z,79392.00
2022-08-21T07:57:21.703Z,78656.00
2022-08-21T07:58:21.313Z,76032.00
2022-08-21T07:59:21.312Z,78016.00
2022-08-21T08:00:21.414Z,80256.00
2022-08-21T08:01:21.380Z,80128.00
2022-08-21T08:02:21.311Z,79360.00
2022-08-21T08:03:29.117Z,77440.00
2022-08-21T08:04:26.246Z,76640.00
2022-08-21T08:05:21.316Z,77184.00
2022-08-21T08:06:21.315Z,74880.00
2022-08-21T08:07:21.316Z,74496.00
2022-08-21T08:08:21.317Z,71008.00
2022-08-21T08:09:21.316Z,71968.00
2022-08-21T08:10:21.368Z,72128.00
2022-08-21T08:11:21.321Z,67904.00
2022-08-21T08:12:21.319Z,68864.00
2022-08-21T08:13:21.324Z,71936.00
2022-08-21T08:14:21.331Z,73984.00
2022-08-21T08:15:21.331Z,77376.00
2022-08-21T08:16:21.329Z,74528.00
2022-08-21T08:17:21.333Z,66784.00
2022-08-21T08:18:21.330Z,66624.00
2022-08-21T08:19:21.335Z,71072.00
2022-08-21T08:20:21.338Z,77472.00
2022-08-21T08:21:21.340Z,74880.00
2022-08-21T08:22:21.345Z,71616.00
2022-08-21T08:23:21.343Z,75264.00
2022-08-21T08:24:21.348Z,75840.00
2022-08-21T08:25:21.351Z,73472.00
2022-08-21T08:26:21.351Z,80064.00
2022-08-21T08:27:21.355Z,77152.00
2022-08-21T08:28:21.353Z,73536.00
2022-08-21T08:29:21.362Z,74464.00
2022-08-21T08:30:21.372Z,74496.00
2022-08-21T08:31:21.377Z,75072.00
2022-08-21T08:32:21.365Z,72768.00
2022-08-21T08:33:21.372Z,72192.00
2022-08-21T08:34:23.617Z,72640.00
2022-08-21T08:35:24.281Z,77984.00
2022-08-21T08:36:21.379Z,77536.00
2022-08-21T08:37:21.382Z,77760.00
2022-08-21T08:38:24.630Z,74496.00
2022-08-21T08:39:26.752Z,74368.00
2022-08-21T08:40:21.601Z,71712.00
2022-08-21T08:41:21.384Z,75072.00
2022-08-21T08:42:34.042Z,69568.00
2022-08-21T08:43:21.391Z,69440.00
2022-08-21T08:44:21.396Z,68448.00
2022-08-21T08:45:21.401Z,70816.00
2022-08-21T08:46:21.401Z,71488.00
2022-08-21T08:47:21.402Z,77952.00
2022-08-21T08:48:21.404Z,85760.00
2022-08-21T08:49:21.407Z,82400.00
2022-08-21T08:50:21.411Z,79936.00
2022-08-21T08:51:21.415Z,74656.00
2022-08-21T08:52:21.413Z,66976.00
2022-08-21T08:53:21.420Z,71264.00
2022-08-21T08:54:21.425Z,75744.00
2022-08-21T08:55:26.691Z,74784.00
2022-08-21T08:56:21.426Z,77088.00
2022-08-21T08:57:21.433Z,79264.00
2022-08-21T08:58:21.438Z,71264.00
2022-08-21T08:59:21.436Z,62048.00
2022-08-21T09:00:21.453Z,35136.00
2022-08-21T09:01:21.575Z,10796.00
2022-08-21T09:02:21.446Z,9012.00
2022-08-21T09:03:21.445Z,16040.00
2022-08-21T09:04:21.482Z,32160.00
2022-08-21T09:05:21.446Z,56832.00
2022-08-21T09:06:21.458Z,64288.00
2022-08-21T09:07:21.449Z,52352.00
2022-08-21T09:08:21.445Z,56608.00
2022-08-21T09:09:21.449Z,58336.00
2022-08-21T09:10:21.462Z,58656.00
2022-08-21T09:11:21.442Z,52128.00
2022-08-21T09:12:21.449Z,61952.00
2022-08-21T09:13:21.445Z,27392.00
2022-08-21T09:14:21.447Z,34112.00
2022-08-21T09:15:21.453Z,8728.00
2022-08-21T09:16:21.446Z,65312.00
2022-08-21T09:17:21.442Z,62368.00
2022-08-21T09:18:21.443Z,63680.00
2022-08-21T09:19:24.768Z,55840.00
2022-08-21T09:20:21.438Z,54816.00
2022-08-21T09:21:21.435Z,58912.00
2022-08-21T09:22:21.432Z,58816.00
2022-08-21T09:23:21.432Z,55936.00
2022-08-21T09:24:21.432Z,50368.00
2022-08-21T09:25:21.431Z,48288.00
2022-08-21T09:26:21.435Z,40320.00
2022-08-21T09:27:21.426Z,54624.00
2022-08-21T09:28:21.429Z,43168.00
2022-08-21T09:29:21.428Z,10736.00
2022-08-21T09:30:21.421Z,8120.00
2022-08-21T09:31:21.434Z,7508.00
2022-08-21T09:32:21.413Z,35744.00
2022-08-21T09:33:21.412Z,38336.00
2022-08-21T09:34:21.404Z,38112.00
2022-08-21T09:35:21.406Z,25856.00
2022-08-21T09:36:21.399Z,10172.00
2022-08-21T09:37:21.403Z,18336.00
2022-08-21T09:38:21.394Z,15232.00
2022-08-21T09:39:21.393Z,16512.00
2022-08-21T09:40:21.455Z,15200.00
2022-08-21T09:41:21.380Z,15360.00
2022-08-21T09:42:21.375Z,13924.00
2022-08-21T09:43:21.378Z,13468.00
2022-08-21T09:44:21.369Z,12780.00
2022-08-21T09:45:21.377Z,12228.00
2022-08-21T09:46:21.360Z,12056.00
2022-08-21T09:47:26.259Z,9980.00
2022-08-21T09:48:21.346Z,11336.00
2022-08-21T09:49:21.347Z,10716.00
2022-08-21T09:50:21.344Z,10340.00
2022-08-21T09:51:21.335Z,10188.00
2022-08-21T09:52:21.332Z,8484.00
2022-08-21T09:53:21.324Z,10120.00
2022-08-21T09:54:21.319Z,9988.00
2022-08-21T09:55:21.327Z,9576.00
2022-08-21T09:56:21.527Z,9328.00
2022-08-21T09:57:21.302Z,8808.00
2022-08-21T09:58:21.299Z,8960.00
2022-08-21T09:59:21.299Z,8880.00
2022-08-21T10:00:21.295Z,8944.00
2022-08-21T10:01:21.950Z,8684.00
2022-08-21T10:02:21.278Z,8536.00
2022-08-21T10:03:21.280Z,8252.00
2022-08-21T10:04:21.266Z,7968.00
2022-08-21T10:05:21.262Z,8008.00
2022-08-21T10:06:21.252Z,7868.00
2022-08-21T10:07:21.246Z,7724.00
2022-08-21T10:08:21.243Z,7848.00
2022-08-21T10:09:21.923Z,7816.00
2022-08-21T10:10:21.232Z,8104.00
2022-08-21T10:11:21.222Z,8260.00
2022-08-21T10:12:21.216Z,8332.00
2022-08-21T10:13:21.217Z,8372.00
2022-08-21T10:14:21.212Z,7876.00
2022-08-21T10:15:21.205Z,7852.00
2022-08-21T10:16:21.202Z,8008.00
2022-08-21T10:17:21.190Z,7792.00
2022-08-21T10:18:21.192Z,7716.00
2022-08-21T10:19:21.189Z,7916.00
2022-08-21T10:20:21.166Z,6772.00
2022-08-21T10:21:21.166Z,5196.00
2022-08-21T10:22:21.156Z,6960.00
2022-08-21T10:23:21.147Z,8496.00
2022-08-21T10:24:31.072Z,8284.00
2022-08-21T10:25:21.140Z,8256.00
2022-08-21T10:26:21.129Z,7248.00
2022-08-21T10:27:21.126Z,7888.00
2022-08-21T10:28:21.120Z,7760.00
2022-08-21T10:29:21.115Z,4948.00
2022-08-21T10:30:21.105Z,4720.00
2022-08-21T10:31:21.102Z,7584.00
2022-08-21T10:32:26.519Z,4976.00
2022-08-21T10:33:21.084Z,4952.00
2022-08-21T10:34:21.081Z,8316.00
2022-08-21T10:35:21.065Z,8580.00
2022-08-21T10:36:21.064Z,8608.00
2022-08-21T10:37:21.053Z,5436.00
2022-08-21T10:38:46.242Z,6452.00
2022-08-21T10:39:35.435Z,7612.00
2022-08-21T10:40:21.124Z,7424.00
2022-08-21T10:41:21.024Z,8228.00
2022-08-21T10:42:23.736Z,8284.00
2022-08-21T10:43:21.009Z,8008.00
2022-08-21T10:44:21.004Z,7644.00
2022-08-21T10:45:20.992Z,7320.00
2022-08-21T10:46:20.995Z,7432.00
2022-08-21T10:47:20.978Z,7348.00
2022-08-21T10:48:20.974Z,7272.00
2022-08-21T10:49:20.965Z,7316.00
2022-08-21T10:50:20.955Z,7236.00
2022-08-21T10:51:20.945Z,6736.00
2022-08-21T10:52:20.940Z,6876.00
2022-08-21T10:53:20.942Z,7000.00
2022-08-21T10:54:23.504Z,7028.00
2022-08-21T10:55:20.914Z,7012.00
2022-08-21T10:56:20.908Z,6968.00
2022-08-21T10:57:31.882Z,6644.00
2022-08-21T10:58:20.897Z,6680.00
2022-08-21T10:59:20.883Z,6708.00
2022-08-21T11:00:20.881Z,6444.00
2022-08-21T11:01:20.942Z,6400.00
2022-08-21T11:02:20.867Z,5832.00
2022-08-21T11:03:20.854Z,5992.00
2022-08-21T11:04:20.847Z,6064.00
2022-08-21T11:05:20.837Z,6192.00
2022-08-21T11:06:20.836Z,6252.00
2022-08-21T11:07:20.819Z,6016.00
2022-08-21T11:08:20.829Z,6016.00
2022-08-21T11:09:20.808Z,5868.00
2022-08-21T11:10:20.800Z,6212.00
2022-08-21T11:11:22.234Z,6040.00
2022-08-21T11:12:20.795Z,6112.00
2022-08-21T11:13:20.771Z,6120.00
2022-08-21T11:14:20.768Z,6004.00
2022-08-21T11:15:28.909Z,5896.00
2022-08-21T11:16:20.748Z,5824.00
2022-08-21T11:17:22.161Z,5828.00
2022-08-21T11:18:20.735Z,5876.00
2022-08-21T11:19:20.726Z,5772.00
2022-08-21T11:20:20.720Z,5828.00
2022-08-21T11:21:20.708Z,5744.00
2022-08-21T11:22:20.700Z,5764.00
2022-08-21T11:23:20.699Z,5652.00
2022-08-21T11:24:20.687Z,5704.00
2022-08-21T11:25:20.674Z,5688.00
2022-08-21T11:26:20.668Z,5596.00
2022-08-21T11:27:20.655Z,5684.00
2022-08-21T11:28:20.649Z,5496.00
2022-08-21T11:29:20.641Z,5560.00
2022-08-21T11:30:20.638Z,5372.00
2022-08-21T11:31:20.622Z,5424.00
2022-08-21T11:32:20.617Z,5588.00
2022-08-21T11:33:20.607Z,5520.00
2022-08-21T11:34:20.602Z,5504.00
2022-08-21T11:35:20.594Z,5500.00
2022-08-21T11:36:20.583Z,5528.00
2022-08-21T11:37:20.576Z,5488.00
2022-08-21T11:38:20.564Z,5440.00
2022-08-21T11:39:20.562Z,5348.00
2022-08-21T11:40:20.703Z,5352.00
2022-08-21T11:41:20.540Z,5292.00
2022-08-21T11:42:20.534Z,5192.00
2022-08-21T11:43:20.522Z,5316.00
2022-08-21T11:44:20.517Z,5380.00
2022-08-21T11:45:20.527Z,5396.00
2022-08-21T11:46:20.497Z,5204.00
2022-08-21T11:47:20.486Z,5292.00
2022-08-21T11:48:20.477Z,5332.00
2022-08-21T11:49:20.476Z,5336.00
2022-08-21T11:50:34.341Z,5332.00
2022-08-21T11:51:20.453Z,5324.00
2022-08-21T11:52:20.446Z,5248.00
2022-08-21T11:53:20.434Z,5376.00
2022-08-21T11:54:20.428Z,5400.00
2022-08-21T11:55:23.699Z,5524.00
2022-08-21T11:56:20.408Z,5368.00
2022-08-21T11:57:20.398Z,5284.00
2022-08-21T11:58:20.394Z,5444.00
2022-08-21T11:59:20.384Z,5256.00
2022-08-21T12:00:20.374Z,4012.00
2022-08-21T12:01:20.369Z,5348.00
2022-08-21T12:02:20.409Z,5576.00
2022-08-21T12:03:20.366Z,5608.00
2022-08-21T12:04:20.341Z,4544.00
2022-08-21T12:05:20.331Z,4176.00
2022-08-21T12:06:24.168Z,5388.00
2022-08-21T12:07:20.316Z,5612.00
2022-08-21T12:08:20.309Z,5428.00
2022-08-21T12:09:20.305Z,5884.00
2022-08-21T12:10:20.291Z,5736.00
2022-08-21T12:11:20.277Z,4824.00
2022-08-21T12:12:20.271Z,4244.00
2022-08-21T12:13:20.261Z,5100.00
2022-08-21T12:14:20.259Z,5240.00
2022-08-21T12:15:20.245Z,5264.00
2022-08-21T12:16:20.244Z,4500.00
2022-08-21T12:17:20.578Z,4516.00
2022-08-21T12:18:20.223Z,4040.00
2022-08-21T12:19:20.214Z,4568.00
2022-08-21T12:20:20.203Z,4520.00
2022-08-21T12:21:20.191Z,4384.00
2022-08-21T12:22:20.186Z,4580.00
2022-08-21T12:23:20.179Z,4588.00
2022-08-21T12:24:20.169Z,4732.00
2022-08-21T12:25:21.899Z,4704.00